sensor_id;sensor_type;location;lat;lon;timestamp;P1;durP1;ratioP1;P2;durP2;ratioP2
77350;SDS011;66420;50.246;14.320;2023-08-07T00:01:28;0.75;;;0.20;;
77350;SDS011;66420;50.246;14.320;2023-08-07T00:04:12;0.20;;;0.20;;
77350;SDS011;66420;50.246;14.320;2023-08-07T00:06:58;1.38;;;0.20;;
77350;SDS011;66420;50.246;14.320;2023-08-07T00:09:42;0.10;;;0.10;;
77350;SDS011;66420;50.246;14.320;2023-08-07T00:12:27;0.40;;;0.10;;
77350;SDS011;66420;50.246;14.320;2023-08-07T00:15:12;0.43;;;0.30;;
77350;SDS011;66420;50.246;14.320;2023-08-07T00:17:57;0.25;;;0.17;;
77350;SDS011;66420;50.246;14.320;2023-08-07T00:20:42;0.20;;;0.20;;
77350;SDS011;66420;50.246;14.320;2023-08-07T00:23:27;0.95;;;0.30;;
77350;SDS011;66420;50.246;14.320;2023-08-07T00:26:12;0.47;;;0.30;;
77350;SDS011;66420;50.246;14.320;2023-08-07T00:28:56;0.20;;;0.17;;
77350;SDS011;66420;50.246;14.320;2023-08-07T00:31:41;0.20;;;0.20;;
77350;SDS011;66420;50.246;14.320;2023-08-07T00:34:26;0.28;;;0.28;;
77350;SDS011;66420;50.246;14.320;2023-08-07T00:37:11;0.20;;;0.10;;
77350;SDS011;66420;50.246;14.320;2023-08-07T00:39:56;0.43;;;0.30;;
77350;SDS011;66420;50.246;14.320;2023-08-07T00:42:40;0.60;;;0.15;;
77350;SDS011;66420;50.246;14.320;2023-08-07T00:45:25;1.10;;;0.20;;
77350;SDS011;66420;50.246;14.320;2023-08-07T00:48:10;0.52;;;0.30;;
77350;SDS011;66420;50.246;14.320;2023-08-07T00:50:56;0.20;;;0.20;;
77350;SDS011;66420;50.246;14.320;2023-08-07T00:53:42;1.55;;;0.20;;
77350;SDS011;66420;50.246;14.320;2023-08-07T00:56:27;0.20;;;0.20;;
77350;SDS011;66420;50.246;14.320;2023-08-07T00:59:13;0.20;;;0.20;;
77350;SDS011;66420;50.246;14.320;2023-08-07T01:01:59;0.20;;;0.20;;
77350;SDS011;66420;50.246;14.320;2023-08-07T01:04:44;0.47;;;0.25;;
77350;SDS011;66420;50.246;14.320;2023-08-07T01:07:29;0.85;;;0.35;;
77350;SDS011;66420;50.246;14.320;2023-08-07T01:10:14;0.95;;;0.28;;
77350;SDS011;66420;50.246;14.320;2023-08-07T01:13:02;0.22;;;0.20;;
77350;SDS011;66420;50.246;14.320;2023-08-07T01:16:01;0.57;;;0.25;;
77350;SDS011;66420;50.246;14.320;2023-08-07T01:18:52;2.15;;;0.25;;
77350;SDS011;66420;50.246;14.320;2023-08-07T01:21:38;0.30;;;0.30;;
77350;SDS011;66420;50.246;14.320;2023-08-07T01:24:23;0.40;;;0.20;;
77350;SDS011;66420;50.246;14.320;2023-08-07T01:33:25;0.30;;;0.20;;
77350;SDS011;66420;50.246;14.320;2023-08-07T01:36:16;0.80;;;0.30;;
77350;SDS011;66420;50.246;14.320;2023-08-07T01:39:02;0.25;;;0.10;;
77350;SDS011;66420;50.246;14.320;2023-08-07T01:41:48;0.45;;;0.20;;
77350;SDS011;66420;50.246;14.320;2023-08-07T01:44:34;0.98;;;0.50;;
77350;SDS011;66420;50.246;14.320;2023-08-07T01:47:20;1.60;;;0.60;;
77350;SDS011;66420;50.246;14.320;2023-08-07T01:50:05;0.40;;;0.30;;
77350;SDS011;66420;50.246;14.320;2023-08-07T01:52:50;0.17;;;0.17;;
77350;SDS011;66420;50.246;14.320;2023-08-07T01:55:35;0.32;;;0.20;;
77350;SDS011;66420;50.246;14.320;2023-08-07T01:58:20;0.65;;;0.20;;
77350;SDS011;66420;50.246;14.320;2023-08-07T02:01:05;0.77;;;0.30;;
77350;SDS011;66420;50.246;14.320;2023-08-07T02:03:50;0.10;;;0.10;;
77350;SDS011;66420;50.246;14.320;2023-08-07T02:06:34;0.17;;;0.10;;
77350;SDS011;66420;50.246;14.320;2023-08-07T02:09:19;0.22;;;0.20;;
77350;SDS011;66420;50.246;14.320;2023-08-07T02:12:04;0.32;;;0.20;;
77350;SDS011;66420;50.246;14.320;2023-08-07T02:14:49;0.30;;;0.20;;
77350;SDS011;66420;50.246;14.320;2023-08-07T02:17:34;0.55;;;0.30;;
77350;SDS011;66420;50.246;14.320;2023-08-07T02:20:19;0.20;;;0.20;;
77350;SDS011;66420;50.246;14.320;2023-08-07T02:23:04;0.47;;;0.20;;
77350;SDS011;66420;50.246;14.320;2023-08-07T02:25:49;0.47;;;0.20;;
77350;SDS011;66420;50.246;14.320;2023-08-07T02:28:34;0.38;;;0.30;;
77350;SDS011;66420;50.246;14.320;2023-08-07T02:31:19;0.10;;;0.10;;
77350;SDS011;66420;50.246;14.320;2023-08-07T02:34:04;0.20;;;0.20;;
77350;SDS011;66420;50.246;14.320;2023-08-07T02:36:49;0.20;;;0.20;;
77350;SDS011;66420;50.246;14.320;2023-08-07T02:39:33;1.55;;;0.22;;
77350;SDS011;66420;50.246;14.320;2023-08-07T02:42:19;0.10;;;0.10;;
77350;SDS011;66420;50.246;14.320;2023-08-07T02:45:03;1.75;;;0.20;;
77350;SDS011;66420;50.246;14.320;2023-08-07T02:47:49;0.20;;;0.20;;
77350;SDS011;66420;50.246;14.320;2023-08-07T02:50:33;0.73;;;0.20;;
77350;SDS011;66420;50.246;14.320;2023-08-07T02:53:19;0.63;;;0.20;;
77350;SDS011;66420;50.246;14.320;2023-08-07T02:56:04;0.40;;;0.22;;
77350;SDS011;66420;50.246;14.320;2023-08-07T02:58:49;0.85;;;0.20;;
77350;SDS011;66420;50.246;14.320;2023-08-07T03:01:34;0.20;;;0.20;;
77350;SDS011;66420;50.246;14.320;2023-08-07T03:04:19;0.20;;;0.20;;
77350;SDS011;66420;50.246;14.320;2023-08-07T03:07:03;1.20;;;0.20;;
77350;SDS011;66420;50.246;14.320;2023-08-07T03:09:48;0.98;;;0.20;;
77350;SDS011;66420;50.246;14.320;2023-08-07T03:12:33;0.20;;;0.20;;
77350;SDS011;66420;50.246;14.320;2023-08-07T03:15:17;0.20;;;0.20;;
77350;SDS011;66420;50.246;14.320;2023-08-07T03:18:02;0.40;;;0.28;;
77350;SDS011;66420;50.246;14.320;2023-08-07T03:20:47;0.57;;;0.30;;
77350;SDS011;66420;50.246;14.320;2023-08-07T03:23:32;0.52;;;0.30;;
77350;SDS011;66420;50.246;14.320;2023-08-07T03:26:17;0.38;;;0.30;;
77350;SDS011;66420;50.246;14.320;2023-08-07T03:29:01;1.85;;;0.50;;
77350;SDS011;66420;50.246;14.320;2023-08-07T03:31:46;0.30;;;0.30;;
77350;SDS011;66420;50.246;14.320;2023-08-07T03:34:31;0.40;;;0.28;;
77350;SDS011;66420;50.246;14.320;2023-08-07T03:37:17;1.45;;;0.30;;
77350;SDS011;66420;50.246;14.320;2023-08-07T03:40:01;2.47;;;0.22;;
77350;SDS011;66420;50.246;14.320;2023-08-07T03:42:46;0.45;;;0.40;;
77350;SDS011;66420;50.246;14.320;2023-08-07T03:45:31;0.30;;;0.10;;
77350;SDS011;66420;50.246;14.320;2023-08-07T03:48:16;0.93;;;0.40;;
77350;SDS011;66420;50.246;14.320;2023-08-07T03:51:07;1.15;;;0.22;;
77350;SDS011;66420;50.246;14.320;2023-08-07T03:53:55;0.30;;;0.20;;
77350;SDS011;66420;50.246;14.320;2023-08-07T03:56:40;1.00;;;0.30;;
77350;SDS011;66420;50.246;14.320;2023-08-07T03:59:25;0.52;;;0.52;;
77350;SDS011;66420;50.246;14.320;2023-08-07T04:02:10;1.15;;;0.22;;
77350;SDS011;66420;50.246;14.320;2023-08-07T04:04:55;2.45;;;0.30;;
77350;SDS011;66420;50.246;14.320;2023-08-07T04:07:39;0.20;;;0.10;;
77350;SDS011;66420;50.246;14.320;2023-08-07T04:10:24;0.20;;;0.20;;
77350;SDS011;66420;50.246;14.320;2023-08-07T04:13:09;0.20;;;0.20;;
77350;SDS011;66420;50.246;14.320;2023-08-07T04:15:53;0.20;;;0.20;;
77350;SDS011;66420;50.246;14.320;2023-08-07T04:18:38;0.25;;;0.20;;
77350;SDS011;66420;50.246;14.320;2023-08-07T04:21:23;0.73;;;0.25;;
77350;SDS011;66420;50.246;14.320;2023-08-07T04:24:08;3.47;;;0.25;;
77350;SDS011;66420;50.246;14.320;2023-08-07T04:26:55;0.30;;;0.30;;
77350;SDS011;66420;50.246;14.320;2023-08-07T04:29:40;0.20;;;0.20;;
77350;SDS011;66420;50.246;14.320;2023-08-07T04:32:24;0.50;;;0.40;;
77350;SDS011;66420;50.246;14.320;2023-08-07T04:35:09;0.22;;;0.22;;
77350;SDS011;66420;50.246;14.320;2023-08-07T04:37:54;0.38;;;0.30;;
77350;SDS011;66420;50.246;14.320;2023-08-07T04:40:43;0.82;;;0.50;;
77350;SDS011;66420;50.246;14.320;2023-08-07T04:43:31;1.27;;;0.40;;
77350;SDS011;66420;50.246;14.320;2023-08-07T04:46:16;0.35;;;0.30;;
77350;SDS011;66420;50.246;14.320;2023-08-07T04:49:01;2.33;;;0.40;;
77350;SDS011;66420;50.246;14.320;2023-08-07T04:51:46;0.88;;;0.40;;
77350;SDS011;66420;50.246;14.320;2023-08-07T04:54:30;1.00;;;0.60;;
77350;SDS011;66420;50.246;14.320;2023-08-07T04:57:15;2.35;;;0.45;;
77350;SDS011;66420;50.246;14.320;2023-08-07T05:00:00;0.95;;;0.38;;
77350;SDS011;66420;50.246;14.320;2023-08-07T05:02:45;1.88;;;0.40;;
77350;SDS011;66420;50.246;14.320;2023-08-07T05:05:32;1.13;;;0.50;;
77350;SDS011;66420;50.246;14.320;2023-08-07T05:08:17;1.10;;;0.47;;
77350;SDS011;66420;50.246;14.320;2023-08-07T05:11:01;1.95;;;0.60;;
77350;SDS011;66420;50.246;14.320;2023-08-07T05:13:46;1.02;;;0.50;;
77350;SDS011;66420;50.246;14.320;2023-08-07T05:16:31;1.05;;;0.70;;
77350;SDS011;66420;50.246;14.320;2023-08-07T05:19:16;1.10;;;0.70;;
77350;SDS011;66420;50.246;14.320;2023-08-07T05:22:02;1.77;;;0.60;;
77350;SDS011;66420;50.246;14.320;2023-08-07T05:24:47;4.03;;;0.50;;
77350;SDS011;66420;50.246;14.320;2023-08-07T05:27:32;0.68;;;0.40;;
77350;SDS011;66420;50.246;14.320;2023-08-07T05:30:19;0.80;;;0.50;;
77350;SDS011;66420;50.246;14.320;2023-08-07T05:33:03;1.35;;;0.63;;
77350;SDS011;66420;50.246;14.320;2023-08-07T05:35:48;0.93;;;0.50;;
77350;SDS011;66420;50.246;14.320;2023-08-07T05:38:34;1.77;;;0.60;;
77350;SDS011;66420;50.246;14.320;2023-08-07T05:41:19;0.73;;;0.50;;
77350;SDS011;66420;50.246;14.320;2023-08-07T05:44:04;0.90;;;0.60;;
77350;SDS011;66420;50.246;14.320;2023-08-07T05:46:49;1.55;;;0.50;;
77350;SDS011;66420;50.246;14.320;2023-08-07T05:49:35;0.73;;;0.50;;
77350;SDS011;66420;50.246;14.320;2023-08-07T05:52:20;4.03;;;0.60;;
77350;SDS011;66420;50.246;14.320;2023-08-07T05:55:05;1.58;;;0.40;;
77350;SDS011;66420;50.246;14.320;2023-08-07T05:57:50;1.33;;;0.50;;
77350;SDS011;66420;50.246;14.320;2023-08-07T06:00:34;0.68;;;0.50;;
77350;SDS011;66420;50.246;14.320;2023-08-07T06:03:19;1.55;;;0.52;;
77350;SDS011;66420;50.246;14.320;2023-08-07T06:06:04;1.65;;;0.60;;
77350;SDS011;66420;50.246;14.320;2023-08-07T06:08:49;1.40;;;0.63;;
77350;SDS011;66420;50.246;14.320;2023-08-07T06:11:34;0.88;;;0.60;;
77350;SDS011;66420;50.246;14.320;2023-08-07T06:14:19;0.90;;;0.60;;
77350;SDS011;66420;50.246;14.320;2023-08-07T06:17:04;1.35;;;0.70;;
77350;SDS011;66420;50.246;14.320;2023-08-07T06:19:50;1.33;;;0.70;;
77350;SDS011;66420;50.246;14.320;2023-08-07T06:22:35;1.60;;;0.80;;
77350;SDS011;66420;50.246;14.320;2023-08-07T06:25:19;1.75;;;0.70;;
77350;SDS011;66420;50.246;14.320;2023-08-07T06:28:04;2.10;;;0.77;;
77350;SDS011;66420;50.246;14.320;2023-08-07T06:30:49;1.75;;;0.80;;
77350;SDS011;66420;50.246;14.320;2023-08-07T06:33:33;2.78;;;0.70;;
77350;SDS011;66420;50.246;14.320;2023-08-07T06:36:19;5.10;;;0.75;;
77350;SDS011;66420;50.246;14.320;2023-08-07T06:39:04;2.47;;;0.75;;
77350;SDS011;66420;50.246;14.320;2023-08-07T06:41:49;1.63;;;0.80;;
77350;SDS011;66420;50.246;14.320;2023-08-07T06:44:33;2.45;;;0.90;;
77350;SDS011;66420;50.246;14.320;2023-08-07T06:47:18;2.00;;;1.15;;
77350;SDS011;66420;50.246;14.320;2023-08-07T06:50:03;2.13;;;1.00;;
77350;SDS011;66420;50.246;14.320;2023-08-07T06:52:47;3.08;;;0.85;;
77350;SDS011;66420;50.246;14.320;2023-08-07T06:55:32;2.42;;;0.73;;
77350;SDS011;66420;50.246;14.320;2023-08-07T06:58:17;1.92;;;0.93;;
77350;SDS011;66420;50.246;14.320;2023-08-07T07:01:02;2.90;;;1.30;;
77350;SDS011;66420;50.246;14.320;2023-08-07T07:03:46;3.95;;;1.30;;
77350;SDS011;66420;50.246;14.320;2023-08-07T07:06:36;5.10;;;1.65;;
77350;SDS011;66420;50.246;14.320;2023-08-07T07:09:22;7.90;;;1.50;;
77350;SDS011;66420;50.246;14.320;2023-08-07T07:12:06;3.22;;;1.35;;
77350;SDS011;66420;50.246;14.320;2023-08-07T07:14:51;2.75;;;1.40;;
77350;SDS011;66420;50.246;14.320;2023-08-07T07:17:35;5.30;;;1.42;;
77350;SDS011;66420;50.246;14.320;2023-08-07T07:20:20;2.78;;;1.30;;
77350;SDS011;66420;50.246;14.320;2023-08-07T07:23:05;2.58;;;1.35;;
77350;SDS011;66420;50.246;14.320;2023-08-07T07:25:51;2.75;;;1.25;;
77350;SDS011;66420;50.246;14.320;2023-08-07T07:28:36;5.43;;;1.85;;
77350;SDS011;66420;50.246;14.320;2023-08-07T07:31:21;3.80;;;1.23;;
77350;SDS011;66420;50.246;14.320;2023-08-07T07:34:06;7.70;;;1.50;;
77350;SDS011;66420;50.246;14.320;2023-08-07T07:36:51;2.38;;;1.30;;
77350;SDS011;66420;50.246;14.320;2023-08-07T07:39:38;4.00;;;1.48;;
77350;SDS011;66420;50.246;14.320;2023-08-07T07:42:23;3.17;;;1.38;;
77350;SDS011;66420;50.246;14.320;2023-08-07T07:45:11;7.35;;;1.35;;
77350;SDS011;66420;50.246;14.320;2023-08-07T07:47:56;5.03;;;1.30;;
77350;SDS011;66420;50.246;14.320;2023-08-07T07:50:41;3.50;;;1.30;;
77350;SDS011;66420;50.246;14.320;2023-08-07T07:53:27;2.35;;;1.20;;
77350;SDS011;66420;50.246;14.320;2023-08-07T07:56:11;2.30;;;1.30;;
77350;SDS011;66420;50.246;14.320;2023-08-07T07:58:57;4.05;;;1.30;;
77350;SDS011;66420;50.246;14.320;2023-08-07T08:01:41;2.50;;;1.30;;
77350;SDS011;66420;50.246;14.320;2023-08-07T08:04:27;2.60;;;1.10;;
77350;SDS011;66420;50.246;14.320;2023-08-07T08:07:12;1.75;;;1.10;;
77350;SDS011;66420;50.246;14.320;2023-08-07T08:09:57;3.58;;;1.10;;
77350;SDS011;66420;50.246;14.320;2023-08-07T08:12:41;3.55;;;1.42;;
77350;SDS011;66420;50.246;14.320;2023-08-07T08:15:27;3.67;;;1.30;;
77350;SDS011;66420;50.246;14.320;2023-08-07T08:18:12;2.33;;;1.10;;
77350;SDS011;66420;50.246;14.320;2023-08-07T08:20:57;1.92;;;0.88;;
77350;SDS011;66420;50.246;14.320;2023-08-07T08:23:42;3.38;;;1.00;;
77350;SDS011;66420;50.246;14.320;2023-08-07T08:26:27;2.20;;;1.00;;
77350;SDS011;66420;50.246;14.320;2023-08-07T08:29:14;2.13;;;0.93;;
77350;SDS011;66420;50.246;14.320;2023-08-07T08:31:59;2.20;;;1.05;;
77350;SDS011;66420;50.246;14.320;2023-08-07T08:34:43;1.40;;;0.80;;
77350;SDS011;66420;50.246;14.320;2023-08-07T08:37:28;2.85;;;0.90;;
77350;SDS011;66420;50.246;14.320;2023-08-07T08:40:13;2.42;;;0.80;;
77350;SDS011;66420;50.246;14.320;2023-08-07T08:43:01;1.08;;;0.73;;
77350;SDS011;66420;50.246;14.320;2023-08-07T08:45:46;3.03;;;0.80;;
77350;SDS011;66420;50.246;14.320;2023-08-07T08:48:35;1.10;;;0.70;;
77350;SDS011;66420;50.246;14.320;2023-08-07T08:51:23;1.45;;;0.80;;
77350;SDS011;66420;50.246;14.320;2023-08-07T08:54:09;1.83;;;0.90;;
77350;SDS011;66420;50.246;14.320;2023-08-07T08:56:53;3.75;;;0.80;;
77350;SDS011;66420;50.246;14.320;2023-08-07T08:59:41;1.65;;;0.80;;
77350;SDS011;66420;50.246;14.320;2023-08-07T09:02:26;1.10;;;0.60;;
77350;SDS011;66420;50.246;14.320;2023-08-07T09:05:13;2.40;;;0.70;;
77350;SDS011;66420;50.246;14.320;2023-08-07T09:07:59;1.77;;;0.70;;
77350;SDS011;66420;50.246;14.320;2023-08-07T09:10:45;2.00;;;0.65;;
77350;SDS011;66420;50.246;14.320;2023-08-07T09:13:30;1.35;;;0.70;;
77350;SDS011;66420;50.246;14.320;2023-08-07T09:16:20;2.03;;;0.75;;
77350;SDS011;66420;50.246;14.320;2023-08-07T09:19:07;1.30;;;0.63;;
77350;SDS011;66420;50.246;14.320;2023-08-07T09:21:53;1.58;;;0.70;;
77350;SDS011;66420;50.246;14.320;2023-08-07T09:24:38;1.65;;;0.63;;
77350;SDS011;66420;50.246;14.320;2023-08-07T09:27:23;2.00;;;0.80;;
77350;SDS011;66420;50.246;14.320;2023-08-07T09:30:08;1.42;;;0.75;;
77350;SDS011;66420;50.246;14.320;2023-08-07T09:32:54;1.27;;;0.68;;
77350;SDS011;66420;50.246;14.320;2023-08-07T09:35:40;1.73;;;0.60;;
77350;SDS011;66420;50.246;14.320;2023-08-07T09:38:29;1.55;;;0.75;;
77350;SDS011;66420;50.246;14.320;2023-08-07T09:41:17;1.50;;;0.77;;
77350;SDS011;66420;50.246;14.320;2023-08-07T09:44:07;1.10;;;0.63;;
77350;SDS011;66420;50.246;14.320;2023-08-07T09:46:53;1.08;;;0.70;;
77350;SDS011;66420;50.246;14.320;2023-08-07T09:49:37;1.33;;;0.70;;
77350;SDS011;66420;50.246;14.320;2023-08-07T09:52:22;1.20;;;0.80;;
77350;SDS011;66420;50.246;14.320;2023-08-07T09:55:10;1.10;;;0.70;;
77350;SDS011;66420;50.246;14.320;2023-08-07T09:57:57;2.10;;;0.80;;
77350;SDS011;66420;50.246;14.320;2023-08-07T10:00:45;1.70;;;0.70;;
77350;SDS011;66420;50.246;14.320;2023-08-07T10:03:31;1.88;;;0.70;;
77350;SDS011;66420;50.246;14.320;2023-08-07T10:06:16;0.85;;;0.50;;
77350;SDS011;66420;50.246;14.320;2023-08-07T10:09:02;1.20;;;0.60;;
77350;SDS011;66420;50.246;14.320;2023-08-07T10:11:51;1.58;;;0.60;;
77350;SDS011;66420;50.246;14.320;2023-08-07T10:14:35;0.75;;;0.50;;
77350;SDS011;66420;50.246;14.320;2023-08-07T10:17:24;1.55;;;0.57;;
77350;SDS011;66420;50.246;14.320;2023-08-07T10:20:09;1.00;;;0.70;;
77350;SDS011;66420;50.246;14.320;2023-08-07T10:23:04;1.00;;;0.50;;
77350;SDS011;66420;50.246;14.320;2023-08-07T10:25:51;0.85;;;0.70;;
77350;SDS011;66420;50.246;14.320;2023-08-07T10:28:39;1.00;;;0.60;;
77350;SDS011;66420;50.246;14.320;2023-08-07T10:31:25;2.85;;;0.80;;
77350;SDS011;66420;50.246;14.320;2023-08-07T10:34:12;0.60;;;0.60;;
77350;SDS011;66420;50.246;14.320;2023-08-07T10:36:56;3.45;;;0.70;;
77350;SDS011;66420;50.246;14.320;2023-08-07T10:40:00;1.05;;;0.63;;
77350;SDS011;66420;50.246;14.320;2023-08-07T10:45:35;1.13;;;0.50;;
77350;SDS011;66420;50.246;14.320;2023-08-07T10:48:20;0.50;;;0.40;;
77350;SDS011;66420;50.246;14.320;2023-08-07T10:51:06;0.80;;;0.50;;
77350;SDS011;66420;50.246;14.320;2023-08-07T10:53:51;0.77;;;0.40;;
77350;SDS011;66420;50.246;14.320;2023-08-07T10:56:39;1.02;;;0.57;;
77350;SDS011;66420;50.246;14.320;2023-08-07T10:59:27;1.10;;;0.70;;
77350;SDS011;66420;50.246;14.320;2023-08-07T11:02:21;0.95;;;0.60;;
77350;SDS011;66420;50.246;14.320;2023-08-07T11:05:10;1.75;;;0.80;;
77350;SDS011;66420;50.246;14.320;2023-08-07T11:07:56;2.30;;;0.80;;
77350;SDS011;66420;50.246;14.320;2023-08-07T11:10:42;9.13;;;1.30;;
77350;SDS011;66420;50.246;14.320;2023-08-07T11:13:29;1.42;;;0.80;;
77350;SDS011;66420;50.246;14.320;2023-08-07T11:16:13;3.28;;;0.80;;
77350;SDS011;66420;50.246;14.320;2023-08-07T11:18:58;1.20;;;0.70;;
77350;SDS011;66420;50.246;14.320;2023-08-07T11:21:44;1.08;;;0.60;;
77350;SDS011;66420;50.246;14.320;2023-08-07T11:24:29;1.17;;;0.50;;
77350;SDS011;66420;50.246;14.320;2023-08-07T11:27:14;1.50;;;0.60;;
77350;SDS011;66420;50.246;14.320;2023-08-07T11:29:58;0.93;;;0.60;;
77350;SDS011;66420;50.246;14.320;2023-08-07T11:32:43;1.05;;;0.60;;
77350;SDS011;66420;50.246;14.320;2023-08-07T11:35:27;1.05;;;0.70;;
77350;SDS011;66420;50.246;14.320;2023-08-07T11:38:15;0.98;;;0.57;;
77350;SDS011;66420;50.246;14.320;2023-08-07T11:41:20;1.05;;;0.70;;
77350;SDS011;66420;50.246;14.320;2023-08-07T11:44:07;2.90;;;0.70;;
77350;SDS011;66420;50.246;14.320;2023-08-07T11:46:52;3.90;;;0.60;;
77350;SDS011;66420;50.246;14.320;2023-08-07T11:49:36;0.65;;;0.50;;
77350;SDS011;66420;50.246;14.320;2023-08-07T11:52:22;1.70;;;0.70;;
77350;SDS011;66420;50.246;14.320;2023-08-07T11:55:08;0.77;;;0.60;;
77350;SDS011;66420;50.246;14.320;2023-08-07T11:57:53;2.28;;;0.57;;
77350;SDS011;66420;50.246;14.320;2023-08-07T12:00:41;1.20;;;0.60;;
77350;SDS011;66420;50.246;14.320;2023-08-07T12:03:28;0.75;;;0.60;;
77350;SDS011;66420;50.246;14.320;2023-08-07T12:06:14;1.13;;;0.60;;
77350;SDS011;66420;50.246;14.320;2023-08-07T12:08:59;0.80;;;0.50;;
77350;SDS011;66420;50.246;14.320;2023-08-07T12:11:43;0.70;;;0.52;;
77350;SDS011;66420;50.246;14.320;2023-08-07T12:14:29;1.25;;;0.52;;
77350;SDS011;66420;50.246;14.320;2023-08-07T12:17:14;0.85;;;0.60;;
77350;SDS011;66420;50.246;14.320;2023-08-07T12:20:00;2.40;;;0.60;;
77350;SDS011;66420;50.246;14.320;2023-08-07T12:22:48;0.77;;;0.52;;
77350;SDS011;66420;50.246;14.320;2023-08-07T12:25:33;2.05;;;0.60;;
77350;SDS011;66420;50.246;14.320;2023-08-07T12:28:18;2.05;;;0.50;;
77350;SDS011;66420;50.246;14.320;2023-08-07T12:31:03;1.13;;;0.57;;
77350;SDS011;66420;50.246;14.320;2023-08-07T12:33:47;1.90;;;0.70;;
77350;SDS011;66420;50.246;14.320;2023-08-07T12:36:33;0.93;;;0.50;;
77350;SDS011;66420;50.246;14.320;2023-08-07T12:39:17;0.88;;;0.60;;
77350;SDS011;66420;50.246;14.320;2023-08-07T12:42:02;2.05;;;0.60;;
77350;SDS011;66420;50.246;14.320;2023-08-07T12:44:49;2.25;;;0.50;;
77350;SDS011;66420;50.246;14.320;2023-08-07T12:47:33;1.10;;;0.50;;
77350;SDS011;66420;50.246;14.320;2023-08-07T12:50:18;0.60;;;0.40;;
77350;SDS011;66420;50.246;14.320;2023-08-07T12:53:03;1.48;;;0.50;;
77350;SDS011;66420;50.246;14.320;2023-08-07T12:55:47;0.55;;;0.50;;
77350;SDS011;66420;50.246;14.320;2023-08-07T12:58:32;0.60;;;0.50;;
77350;SDS011;66420;50.246;14.320;2023-08-07T13:01:17;1.13;;;0.68;;
77350;SDS011;66420;50.246;14.320;2023-08-07T13:04:02;0.40;;;0.40;;
77350;SDS011;66420;50.246;14.320;2023-08-07T13:06:48;0.50;;;0.50;;
77350;SDS011;66420;50.246;14.320;2023-08-07T13:09:33;0.75;;;0.50;;
77350;SDS011;66420;50.246;14.320;2023-08-07T13:12:18;0.70;;;0.52;;
77350;SDS011;66420;50.246;14.320;2023-08-07T13:15:05;1.00;;;0.47;;
77350;SDS011;66420;50.246;14.320;2023-08-07T13:17:56;1.55;;;0.52;;
77350;SDS011;66420;50.246;14.320;2023-08-07T13:20:41;0.68;;;0.43;;
77350;SDS011;66420;50.246;14.320;2023-08-07T13:23:26;0.80;;;0.43;;
77350;SDS011;66420;50.246;14.320;2023-08-07T13:26:11;1.02;;;0.43;;
77350;SDS011;66420;50.246;14.320;2023-08-07T13:28:56;0.43;;;0.40;;
77350;SDS011;66420;50.246;14.320;2023-08-07T13:31:41;0.68;;;0.50;;
77350;SDS011;66420;50.246;14.320;2023-08-07T13:34:28;1.35;;;0.50;;
77350;SDS011;66420;50.246;14.320;2023-08-07T13:37:14;2.15;;;0.60;;
77350;SDS011;66420;50.246;14.320;2023-08-07T13:39:58;1.98;;;0.60;;
77350;SDS011;66420;50.246;14.320;2023-08-07T13:42:45;3.35;;;0.50;;
77350;SDS011;66420;50.246;14.320;2023-08-07T13:45:30;2.58;;;0.52;;
77350;SDS011;66420;50.246;14.320;2023-08-07T13:48:14;0.70;;;0.50;;
77350;SDS011;66420;50.246;14.320;2023-08-07T13:50:59;0.85;;;0.60;;
77350;SDS011;66420;50.246;14.320;2023-08-07T13:53:48;1.75;;;0.50;;
77350;SDS011;66420;50.246;14.320;2023-08-07T13:56:35;2.35;;;0.50;;
77350;SDS011;66420;50.246;14.320;2023-08-07T13:59:20;1.48;;;0.60;;
77350;SDS011;66420;50.246;14.320;2023-08-07T14:02:05;0.63;;;0.47;;
77350;SDS011;66420;50.246;14.320;2023-08-07T14:04:50;0.80;;;0.40;;
77350;SDS011;66420;50.246;14.320;2023-08-07T14:07:35;0.50;;;0.40;;
77350;SDS011;66420;50.246;14.320;2023-08-07T14:10:20;1.48;;;0.40;;
77350;SDS011;66420;50.246;14.320;2023-08-07T14:13:05;0.77;;;0.50;;
77350;SDS011;66420;50.246;14.320;2023-08-07T14:15:50;0.70;;;0.38;;
77350;SDS011;66420;50.246;14.320;2023-08-07T14:18:38;2.72;;;0.50;;
77350;SDS011;66420;50.246;14.320;2023-08-07T14:21:23;0.43;;;0.40;;
77350;SDS011;66420;50.246;14.320;2023-08-07T14:24:09;0.77;;;0.50;;
77350;SDS011;66420;50.246;14.320;2023-08-07T14:26:54;0.43;;;0.30;;
77350;SDS011;66420;50.246;14.320;2023-08-07T14:29:39;1.13;;;0.30;;
77350;SDS011;66420;50.246;14.320;2023-08-07T14:32:24;3.90;;;0.50;;
77350;SDS011;66420;50.246;14.320;2023-08-07T14:35:09;0.30;;;0.30;;
77350;SDS011;66420;50.246;14.320;2023-08-07T14:37:54;0.90;;;0.50;;
77350;SDS011;66420;50.246;14.320;2023-08-07T14:40:38;0.77;;;0.40;;
77350;SDS011;66420;50.246;14.320;2023-08-07T14:43:27;1.73;;;0.40;;
77350;SDS011;66420;50.246;14.320;2023-08-07T14:46:16;1.50;;;0.43;;
77350;SDS011;66420;50.246;14.320;2023-08-07T14:49:02;1.23;;;0.40;;
77350;SDS011;66420;50.246;14.320;2023-08-07T14:51:47;1.75;;;0.52;;
77350;SDS011;66420;50.246;14.320;2023-08-07T14:54:32;2.03;;;0.60;;
77350;SDS011;66420;50.246;14.320;2023-08-07T14:57:16;1.80;;;0.47;;
77350;SDS011;66420;50.246;14.320;2023-08-07T15:00:01;2.30;;;0.57;;
77350;SDS011;66420;50.246;14.320;2023-08-07T15:02:48;0.63;;;0.40;;
77350;SDS011;66420;50.246;14.320;2023-08-07T15:05:32;1.83;;;0.65;;
77350;SDS011;66420;50.246;14.320;2023-08-07T15:08:17;3.67;;;0.60;;
77350;SDS011;66420;50.246;14.320;2023-08-07T15:11:01;0.57;;;0.40;;
77350;SDS011;66420;50.246;14.320;2023-08-07T15:13:46;1.40;;;0.50;;
77350;SDS011;66420;50.246;14.320;2023-08-07T15:16:31;0.93;;;0.50;;
77350;SDS011;66420;50.246;14.320;2023-08-07T15:19:16;1.92;;;0.80;;
77350;SDS011;66420;50.246;14.320;2023-08-07T15:22:01;2.25;;;0.70;;
77350;SDS011;66420;50.246;14.320;2023-08-07T15:24:47;0.47;;;0.47;;
77350;SDS011;66420;50.246;14.320;2023-08-07T15:27:31;6.00;;;0.60;;
77350;SDS011;66420;50.246;14.320;2023-08-07T15:30:16;2.03;;;0.60;;
77350;SDS011;66420;50.246;14.320;2023-08-07T15:33:01;1.25;;;0.60;;
77350;SDS011;66420;50.246;14.320;2023-08-07T15:35:46;0.65;;;0.55;;
77350;SDS011;66420;50.246;14.320;2023-08-07T15:38:31;1.48;;;0.60;;
77350;SDS011;66420;50.246;14.320;2023-08-07T15:41:16;2.53;;;0.60;;
77350;SDS011;66420;50.246;14.320;2023-08-07T15:44:02;1.30;;;0.70;;
77350;SDS011;66420;50.246;14.320;2023-08-07T15:46:46;0.80;;;0.55;;
77350;SDS011;66420;50.246;14.320;2023-08-07T15:49:31;1.10;;;0.50;;
77350;SDS011;66420;50.246;14.320;2023-08-07T15:52:16;1.00;;;0.63;;
77350;SDS011;66420;50.246;14.320;2023-08-07T15:55:02;1.08;;;0.60;;
77350;SDS011;66420;50.246;14.320;2023-08-07T15:57:47;1.30;;;0.63;;
77350;SDS011;66420;50.246;14.320;2023-08-07T16:00:32;0.82;;;0.60;;
77350;SDS011;66420;50.246;14.320;2023-08-07T16:03:18;1.00;;;0.50;;
77350;SDS011;66420;50.246;14.320;2023-08-07T16:06:06;0.68;;;0.50;;
77350;SDS011;66420;50.246;14.320;2023-08-07T16:08:50;1.08;;;0.60;;
77350;SDS011;66420;50.246;14.320;2023-08-07T16:11:35;1.83;;;0.60;;
77350;SDS011;66420;50.246;14.320;2023-08-07T16:14:20;0.90;;;0.50;;
77350;SDS011;66420;50.246;14.320;2023-08-07T16:17:07;0.55;;;0.50;;
77350;SDS011;66420;50.246;14.320;2023-08-07T16:19:52;1.15;;;0.50;;
77350;SDS011;66420;50.246;14.320;2023-08-07T16:22:37;3.33;;;0.63;;
77350;SDS011;66420;50.246;14.320;2023-08-07T16:25:21;0.43;;;0.40;;
77350;SDS011;66420;50.246;14.320;2023-08-07T16:28:07;1.48;;;0.60;;
77350;SDS011;66420;50.246;14.320;2023-08-07T16:30:52;1.25;;;0.60;;